< < Back
Terminal Aerodrome Forecast


Current Version              Previous Versions:   1  2  3  4  5  6  7  8  9  

Terminal Aerodrome Forecast

216
FTUS42 KFFC 301729
TAFFTY
TAF
KFTY 301729Z 3018/3118 14006KT P6SM SCT045 BKN060
     FM310100 13003KT P6SM FEW060 SCT250
     FM310900 00000KT P6SM BKN012
     FM311500 16004KT P6SM BKN025
     FM311700 19005KT P6SM VCSH SCT035 BKN050 PROB30 3117/3118 3SM
      TSRA BKN025CB=



Latest METAR

956
SAUS70 KWBC 302000 RRJ
MTRFTY
METAR KFTY 301953Z 14009KT 10SM OVC090 28/16 A3011 RMK AO2 SLP187
T02830161


USA.gov is the U.S. government's official web portal to all federal, state and local government web resources and services.